Impacts METAR Board
IDs:

KHOU - Houston/Hobby Arpt, TX, US

Updated at: 1400 UTC 13 Dec 2019
Potential Impact None Slight Moderate High
Time 13/02Z 13/03Z 13/04Z 13/05Z 13/06Z 13/07Z 13/08Z 13/09Z 13/10Z 13/11Z 13/12Z 13/13Z 13/14Z
Temp56 57 58 58 57 58 58 57 57 58 57 57 58
Dewpt47 49 48 50 50 50 51 51 52 52 52 52 53
Altim30.12 30.11 30.10 30.08 30.07 30.05 30.04 30.01 29.99 29.97 29.97 29.98 29.97
VIS10 10 10 10 10 10 10 10 10 10 10 10 10
CIG-- 32 27 32 32 36 36 38 40 42 26 24 --
CoverSCTBKNOVCOVCBKNOVCOVCBKNOVCBKNBKNOVCSCT
FltCatVFRVFRMVFRVFRVFRVFRVFRVFRVFRVFRMVFRMVFRVFR
WX--------------------------
WDir01701300140120013000000
WSpd0 3 3 0 4 6 0 4 0 0 0 0 0
WGst-- -- -- -- -- -- -- -- -- -- -- -- --
Raw hourly METARs
KHOU 130153Z 00000KT 10SM FEW032 SCT250 13/08 A3012 RMK AO2 SLP202 T01330083
KHOU 130253Z 17003KT 10SM BKN032 BKN250 14/09 A3011 RMK AO2 SLP200 T01390094 56002
KHOU 130353Z 13003KT 10SM BKN027 OVC037 14/09 A3010 RMK AO2 SLP197 T01440089
KHOU 130453Z 00000KT 10SM OVC032 14/10 A3008 RMK AO2 SLP192 BINOVC T01440100
KHOU 130553Z 14004KT 10SM FEW020 BKN032 BKN250 14/10 A3007 RMK AO2 SLP186 T01390100 10150 20133 401720072 58015
KHOU 130653Z 12006KT 10SM SCT020 OVC036 14/10 A3005 RMK AO2 SLP182 T01440100
KHOU 130753Z 00000KT 10SM FEW025 OVC036 14/11 A3004 RMK AO2 SLP177 T01440106
KHOU 130853Z 13004KT 10SM FEW025 BKN038 BKN050 14/11 A3001 RMK AO2 SLP168 T01390106 58018
KHOU 130953Z 00000KT 10SM SCT025 OVC040 14/11 A2999 RMK AO2 SLP159 T01390111
KHOU 131053Z 00000KT 10SM FEW025 BKN042 14/11 A2997 RMK AO2 SLP154 T01440111
KHOU 131153Z 00000KT 10SM BKN026 14/11 A2997 RMK AO2 SLP153 T01390111 10150 20133 56016
KHOU 131253Z 00000KT 10SM BKN024 BKN032 OVC042 14/11 A2998 RMK AO2 SLP155 T01390111
KHOU 131353Z 00000KT 10SM SCT020 14/12 A2997 RMK AO2 SLP154 T01440117



Page loaded:  14:17 UTC  |   06:17 AM Pacific  |   07:17 AM Mountain  |   08:17 AM Central  |   09:17 AM Eastern

 

ADVISORIES

FORECASTS

FORECASTS

OBSERVATIONS

USER TOOLS

ABOUT US